Terminal Aerodrome Forecast
Issued by NWS

Home | Current Version | Previous Version | Text Only | Print | Product List | Glossary On
Versions: 1 2 3 4 5 6 7 8 9 10 11 12 13 14
000
FTUS45 KABQ 301200 RRA
TAFFMN
TAF
KFMN 301213Z 3012/3112 10010KT 4SM -SN BR SCT005 OVC020
      TEMPO 3012/3016 2SM -SN BR BKN005
     FM301600 10011KT 5SM -RASN BR SCT007 OVC015
     FM302000 09013G20KT P6SM -RA SCT010 OVC025
     FM310200 10011KT 4SM -RASN SCT005 OVC010=

USA.gov is the U.S. government's official web portal to all federal, state and local government web resources and services.